Time;durP1;ratioP1;P1;durP2;ratioP2;P2;SDS_P1;SDS_P2;PMS_P1;PMS_P2;Temp;Humidity;BMP_temperature;BMP_pressure;BME280_temperature;BME280_humidity;BME280_pressure;Samples;Min_cycle;Max_cycle;Signal;HPM_P1;HPM_P2
2021/09/18 00:01:00;;;;;;;38.72;23.63;;;;;;;;;;5022442;28;20481;-89
2021/09/18 00:03:25;;;;;;;38.22;22.83;;;;;;;;;;5023422;28;20115;-89
2021/09/18 00:05:51;;;;;;;33.10;21.98;;;;;;;;;;5023866;28;20026;-89
2021/09/18 00:08:16;;;;;;;34.40;19.92;;;;;;;;;;5022708;28;20037;-89
2021/09/18 00:10:41;;;;;;;32.67;18.33;;;;;;;;;;5022021;28;20044;-88
2021/09/18 00:13:07;;;;;;;25.65;18.70;;;;;;;;;;5021475;28;20021;-89
2021/09/18 00:15:33;;;;;;;32.40;20.13;;;;;;;;;;5002581;28;20018;-89
2021/09/18 00:17:59;;;;;;;26.98;18.02;;;;;;;;;;5019976;28;20105;-90
2021/09/18 00:20:24;;;;;;;25.35;16.98;;;;;;;;;;5002459;28;20016;-89
2021/09/18 00:22:50;;;;;;;24.90;16.45;;;;;;;;;;5021013;28;20438;-90
2021/09/18 00:25:15;;;;;;;23.27;15.45;;;;;;;;;;5020592;28;20029;-88
2021/09/18 00:27:41;;;;;;;22.02;16.08;;;;;;;;;;5002777;28;20061;-89
2021/09/18 00:30:07;;;;;;;22.25;14.10;;;;;;;;;;5002762;28;20025;-89
2021/09/18 00:32:33;;;;;;;24.75;15.20;;;;;;;;;;5020604;28;20022;-89
2021/09/18 00:34:58;;;;;;;26.05;15.02;;;;;;;;;;5025432;28;20513;-89
2021/09/18 00:37:23;;;;;;;22.38;14.77;;;;;;;;;;5023184;28;20025;-90
2021/09/18 00:39:49;;;;;;;20.33;13.48;;;;;;;;;;5019963;28;20022;-89
2021/09/18 00:42:14;;;;;;;20.60;14.07;;;;;;;;;;5023827;28;20033;-89
2021/09/18 00:44:40;;;;;;;19.27;13.68;;;;;;;;;;5004280;28;20105;-89
2021/09/18 00:47:05;;;;;;;22.55;13.43;;;;;;;;;;5021786;28;20102;-89
2021/09/18 00:49:31;;;;;;;22.05;12.35;;;;;;;;;;5003415;28;20029;-89
2021/09/18 00:51:56;;;;;;;21.80;12.43;;;;;;;;;;5021091;28;20036;-89
2021/09/18 00:54:23;;;;;;;17.73;12.50;;;;;;;;;;5021339;28;20528;-89
2021/09/18 00:56:53;;;;;;;19.95;13.55;;;;;;;;;;5030715;28;20477;-89
2021/09/18 00:59:19;;;;;;;22.42;12.50;;;;;;;;;;5021137;28;20076;-89
2021/09/18 01:01:44;;;;;;;17.70;11.52;;;;;;;;;;5021201;28;20110;-89
2021/09/18 01:04:09;;;;;;;17.58;11.60;;;;;;;;;;5003339;28;20034;-88
2021/09/18 01:06:35;;;;;;;17.27;11.45;;;;;;;;;;5002593;28;20026;-89
2021/09/18 01:09:01;;;;;;;16.98;10.63;;;;;;;;;;5020328;28;20511;-90
2021/09/18 01:11:26;;;;;;;14.55;10.20;;;;;;;;;;5020637;28;20485;-89
2021/09/18 01:13:52;;;;;;;18.20;11.68;;;;;;;;;;5020582;28;20052;-89
2021/09/18 01:16:21;;;;;;;20.90;12.55;;;;;;;;;;5020041;28;20397;-90
2021/09/18 01:18:47;;;;;;;19.67;12.38;;;;;;;;;;5020241;28;20121;-89
2021/09/18 01:21:13;;;;;;;20.88;10.95;;;;;;;;;;5019871;28;20054;-89
2021/09/18 01:23:38;;;;;;;22.38;11.23;;;;;;;;;;5020312;28;20022;-89
2021/09/18 01:26:04;;;;;;;22.13;11.60;;;;;;;;;;5019893;28;20029;-89
2021/09/18 01:28:29;;;;;;;15.68;11.25;;;;;;;;;;5019786;28;20022;-89
2021/09/18 01:30:55;;;;;;;21.20;11.85;;;;;;;;;;5022838;28;20022;-90
2021/09/18 01:33:21;;;;;;;18.27;11.48;;;;;;;;;;5023437;28;20022;-89
2021/09/18 01:35:46;;;;;;;20.25;11.88;;;;;;;;;;5022457;28;20026;-89
2021/09/18 01:38:12;;;;;;;18.17;11.88;;;;;;;;;;5005941;28;20097;-88
2021/09/18 01:40:42;;;;;;;19.08;11.85;;;;;;;;;;5035880;28;20085;-88
2021/09/18 01:43:09;;;;;;;17.45;11.95;;;;;;;;;;5024752;28;20027;-87
2021/09/18 01:45:35;;;;;;;21.40;11.48;;;;;;;;;;5028980;28;20052;-90
2021/09/18 01:48:03;;;;;;;20.55;12.02;;;;;;;;;;5006012;28;20024;-89
2021/09/18 01:50:43;;;;;;;23.25;12.48;;;;;;;;;;5023278;28;20029;-89
2021/09/18 01:53:09;;;;;;;18.92;12.23;;;;;;;;;;5023080;28;20026;-89
2021/09/18 01:55:38;;;;;;;22.10;12.43;;;;;;;;;;5004754;28;20083;-90
2021/09/18 01:58:04;;;;;;;20.15;11.65;;;;;;;;;;5006012;28;20041;-89
2021/09/18 02:00:30;;;;;;;20.38;12.05;;;;;;;;;;5022839;28;20083;-89
2021/09/18 02:02:56;;;;;;;15.90;11.65;;;;;;;;;;5022195;28;20032;-89
2021/09/18 02:05:24;;;;;;;19.80;12.32;;;;;;;;;;5021812;28;20057;-88
2021/09/18 02:07:49;;;;;;;19.10;11.30;;;;;;;;;;5004949;28;20026;-87
2021/09/18 02:10:21;;;;;;;17.10;11.60;;;;;;;;;;5004976;28;20044;-89
2021/09/18 02:12:47;;;;;;;19.88;11.27;;;;;;;;;;5022685;28;20026;-89
2021/09/18 02:15:15;;;;;;;18.33;12.10;;;;;;;;;;5004296;28;20030;-89
2021/09/18 02:17:41;;;;;;;17.67;11.73;;;;;;;;;;5005046;28;20025;-88
2021/09/18 02:20:09;;;;;;;16.48;11.38;;;;;;;;;;5022791;28;20599;-88
2021/09/18 02:22:34;;;;;;;18.05;11.18;;;;;;;;;;5004316;28;20112;-89
2021/09/18 02:24:59;;;;;;;19.95;11.68;;;;;;;;;;5022047;28;20053;-89
2021/09/18 02:27:25;;;;;;;19.35;11.02;;;;;;;;;;5004871;28;20478;-89
2021/09/18 02:29:50;;;;;;;17.52;11.27;;;;;;;;;;5019814;28;20026;-89
2021/09/18 02:32:16;;;;;;;17.70;10.60;;;;;;;;;;5002924;28;20022;-87
2021/09/18 02:34:42;;;;;;;18.00;10.98;;;;;;;;;;5020985;28;20026;-89
2021/09/18 02:37:07;;;;;;;17.70;11.05;;;;;;;;;;5020980;28;20022;-89
2021/09/18 02:39:32;;;;;;;17.38;10.60;;;;;;;;;;5021598;28;20018;-89
2021/09/18 02:41:58;;;;;;;15.15;11.38;;;;;;;;;;5019030;28;20164;-88
2021/09/18 02:44:24;;;;;;;20.02;11.10;;;;;;;;;;5020668;28;20072;-89
2021/09/18 02:46:49;;;;;;;18.05;11.18;;;;;;;;;;5003444;28;20040;-89
2021/09/18 02:49:14;;;;;;;17.33;11.02;;;;;;;;;;5020793;28;20033;-88
2021/09/18 02:51:40;;;;;;;15.70;10.23;;;;;;;;;;5021326;28;20504;-89
2021/09/18 02:54:05;;;;;;;16.50;10.65;;;;;;;;;;5021343;28;20029;-88
2021/09/18 02:56:30;;;;;;;22.70;11.07;;;;;;;;;;5021864;28;20057;-88
2021/09/18 02:58:57;;;;;;;18.08;11.60;;;;;;;;;;5020913;28;20401;-89
2021/09/18 03:01:22;;;;;;;18.92;12.02;;;;;;;;;;5020491;28;20439;-88
2021/09/18 03:03:47;;;;;;;19.48;10.75;;;;;;;;;;5002750;28;20124;-88
2021/09/18 03:06:13;;;;;;;24.77;11.82;;;;;;;;;;5019561;28;20041;-89
2021/09/18 03:08:39;;;;;;;17.80;10.50;;;;;;;;;;5027720;28;20030;-86
2021/09/18 03:11:05;;;;;;;17.77;11.25;;;;;;;;;;5040327;28;20048;-89
2021/09/18 03:13:30;;;;;;;17.77;11.55;;;;;;;;;;5023788;28;20049;-88
2021/09/18 03:15:56;;;;;;;20.13;12.48;;;;;;;;;;5022017;28;20034;-88
2021/09/18 03:18:21;;;;;;;16.10;11.32;;;;;;;;;;5005236;28;20050;-89
2021/09/18 03:20:46;;;;;;;18.13;11.43;;;;;;;;;;5020608;28;20037;-89
2021/09/18 03:23:13;;;;;;;19.60;11.88;;;;;;;;;;5020525;28;20048;-88
2021/09/18 03:25:41;;;;;;;21.92;12.02;;;;;;;;;;5003324;28;20455;-89
2021/09/18 03:28:06;;;;;;;19.50;11.65;;;;;;;;;;5002976;28;20034;-88
2021/09/18 03:30:32;;;;;;;19.50;12.13;;;;;;;;;;5019539;28;20088;-88
2021/09/18 03:32:57;;;;;;;19.33;11.38;;;;;;;;;;5020080;28;20110;-88
2021/09/18 03:35:23;;;;;;;17.00;10.30;;;;;;;;;;5019509;28;20061;-89
2021/09/18 03:37:48;;;;;;;22.83;11.10;;;;;;;;;;5001765;28;20034;-88
2021/09/18 03:40:14;;;;;;;17.52;10.27;;;;;;;;;;5020802;28;20086;-89
2021/09/18 03:42:39;;;;;;;18.85;10.48;;;;;;;;;;5019892;28;20021;-88
2021/09/18 03:45:06;;;;;;;17.42;11.10;;;;;;;;;;5020663;28;20076;-88
2021/09/18 03:47:31;;;;;;;19.17;11.10;;;;;;;;;;5020284;28;20049;-89
2021/09/18 03:49:56;;;;;;;18.60;11.77;;;;;;;;;;5020133;28;20033;-89
2021/09/18 03:52:26;;;;;;;19.95;11.38;;;;;;;;;;5024711;28;20017;-89
2021/09/18 03:54:52;;;;;;;25.05;12.63;;;;;;;;;;5021497;28;20029;-88
2021/09/18 03:57:17;;;;;;;18.25;11.35;;;;;;;;;;5019602;28;20397;-88
2021/09/18 03:59:43;;;;;;;17.73;11.48;;;;;;;;;;5020771;28;20002;-88
2021/09/18 04:02:08;;;;;;;21.23;11.68;;;;;;;;;;5020165;28;20098;-88
2021/09/18 04:04:33;;;;;;;17.25;10.93;;;;;;;;;;5018561;28;20033;-90
2021/09/18 04:06:59;;;;;;;23.13;11.93;;;;;;;;;;5018721;28;20109;-88
2021/09/18 04:09:24;;;;;;;20.83;11.05;;;;;;;;;;5018986;28;20554;-89
2021/09/18 04:11:49;;;;;;;20.48;10.63;;;;;;;;;;5020549;28;20018;-88
2021/09/18 04:14:15;;;;;;;17.67;11.15;;;;;;;;;;5019472;28;20029;-89
2021/09/18 04:16:40;;;;;;;17.13;9.95;;;;;;;;;;5020042;28;20024;-89
2021/09/18 04:19:06;;;;;;;16.48;11.15;;;;;;;;;;5001154;28;20404;-88
2021/09/18 04:21:31;;;;;;;18.58;10.93;;;;;;;;;;5019401;28;20021;-89
2021/09/18 04:23:56;;;;;;;24.27;10.95;;;;;;;;;;5018639;28;20116;-88
2021/09/18 04:26:22;;;;;;;19.60;10.13;;;;;;;;;;5019350;28;20033;-88
2021/09/18 04:28:48;;;;;;;17.02;10.85;;;;;;;;;;5019856;28;20030;-89
2021/09/18 04:31:14;;;;;;;21.00;11.52;;;;;;;;;;5019328;28;20451;-90
2021/09/18 04:33:39;;;;;;;19.45;10.82;;;;;;;;;;5019187;28;20110;-88
2021/09/18 04:36:04;;;;;;;18.20;11.45;;;;;;;;;;5017731;28;20032;-88
2021/09/18 04:38:30;;;;;;;21.88;11.18;;;;;;;;;;5018297;28;20389;-89
2021/09/18 04:40:55;;;;;;;18.80;11.05;;;;;;;;;;5018821;28;20052;-89
2021/09/18 04:43:21;;;;;;;20.15;11.30;;;;;;;;;;5019499;28;20022;-89
2021/09/18 04:45:46;;;;;;;23.80;12.10;;;;;;;;;;5017685;28;20500;-88
2021/09/18 04:48:12;;;;;;;18.48;11.18;;;;;;;;;;5018433;28;20504;-88
2021/09/18 04:50:38;;;;;;;17.25;10.82;;;;;;;;;;5019014;28;20455;-89
2021/09/18 04:53:03;;;;;;;15.25;10.52;;;;;;;;;;5019344;28;20030;-89
2021/09/18 04:55:28;;;;;;;18.90;10.65;;;;;;;;;;5018929;28;20401;-89
2021/09/18 04:57:54;;;;;;;19.92;10.95;;;;;;;;;;5000555;28;20504;-89
2021/09/18 05:00:20;;;;;;;16.10;10.85;;;;;;;;;;5001057;28;20393;-89
2021/09/18 05:02:45;;;;;;;18.70;10.80;;;;;;;;;;5000360;28;20022;-89
2021/09/18 05:05:10;;;;;;;17.38;10.43;;;;;;;;;;5018191;28;20030;-89
2021/09/18 05:07:36;;;;;;;18.27;11.80;;;;;;;;;;5019400;28;20481;-89
2021/09/18 05:10:02;;;;;;;17.10;11.02;;;;;;;;;;5018395;28;20026;-89
2021/09/18 05:12:27;;;;;;;19.08;11.60;;;;;;;;;;5018283;28;20029;-89
2021/09/18 05:14:52;;;;;;;20.77;11.60;;;;;;;;;;5018264;28;20024;-88
2021/09/18 05:17:18;;;;;;;19.30;10.23;;;;;;;;;;5019454;28;20026;-88
2021/09/18 05:19:43;;;;;;;25.15;10.55;;;;;;;;;;5019131;28;20477;-89
2021/09/18 05:22:09;;;;;;;24.90;10.55;;;;;;;;;;5028147;28;20049;-87
2021/09/18 05:24:34;;;;;;;20.17;10.82;;;;;;;;;;5020797;28;20028;-88
2021/09/18 05:26:59;;;;;;;17.70;10.48;;;;;;;;;;5001091;28;20010;-88
2021/09/18 05:29:25;;;;;;;15.02;10.63;;;;;;;;;;5015895;28;20054;-87
2021/09/18 05:31:50;;;;;;;16.02;10.05;;;;;;;;;;5018260;28;20029;-86
2021/09/18 05:34:47;;;;;;;15.98;10.60;;;;;;;;;;5018107;28;20505;-88
2021/09/18 05:37:12;;;;;;;18.42;10.50;;;;;;;;;;5019504;28;20022;-87
2021/09/18 05:39:38;;;;;;;13.23;9.75;;;;;;;;;;5024199;28;20120;-87
2021/09/18 05:42:04;;;;;;;16.50;9.63;;;;;;;;;;5000420;28;20085;-87
2021/09/18 05:44:29;;;;;;;17.27;10.75;;;;;;;;;;4999579;28;20033;-86
2021/09/18 05:46:54;;;;;;;16.52;10.52;;;;;;;;;;5017744;28;20018;-85
2021/09/18 05:49:20;;;;;;;14.45;9.18;;;;;;;;;;5019349;28;20026;-85
2021/09/18 05:51:45;;;;;;;14.30;8.52;;;;;;;;;;5015081;28;20026;-85
2021/09/18 05:54:10;;;;;;;17.63;9.30;;;;;;;;;;5015005;28;20018;-85
2021/09/18 05:56:36;;;;;;;16.48;9.30;;;;;;;;;;5015232;28;20492;-85
2021/09/18 05:59:02;;;;;;;17.42;9.55;;;;;;;;;;5015077;28;20547;-85
2021/09/18 06:01:28;;;;;;;14.70;9.30;;;;;;;;;;5016887;28;20038;-85
2021/09/18 06:03:53;;;;;;;12.88;8.95;;;;;;;;;;5000517;28;20022;-85
2021/09/18 06:06:18;;;;;;;16.90;9.40;;;;;;;;;;4997961;28;20025;-85
2021/09/18 06:08:44;;;;;;;15.57;9.00;;;;;;;;;;4997829;28;20068;-85
2021/09/18 06:11:09;;;;;;;13.00;8.55;;;;;;;;;;5002105;28;20085;-85
2021/09/18 06:13:35;;;;;;;14.35;8.95;;;;;;;;;;5033595;28;20022;-85
2021/09/18 06:16:00;;;;;;;11.82;7.97;;;;;;;;;;4998630;28;20481;-85
2021/09/18 06:18:26;;;;;;;11.15;7.57;;;;;;;;;;5017926;28;20144;-85
2021/09/18 06:20:52;;;;;;;14.75;7.82;;;;;;;;;;5003397;28;20112;-85
2021/09/18 06:23:17;;;;;;;11.23;7.53;;;;;;;;;;5019959;28;20107;-85
2021/09/18 06:25:43;;;;;;;16.35;7.82;;;;;;;;;;5000474;28;20447;-85
2021/09/18 06:28:08;;;;;;;11.70;7.03;;;;;;;;;;5018023;28;20540;-85
2021/09/18 06:30:34;;;;;;;14.20;8.13;;;;;;;;;;5017951;28;20084;-86
2021/09/18 06:32:59;;;;;;;15.20;7.43;;;;;;;;;;5017650;28;20017;-86
2021/09/18 06:35:25;;;;;;;11.15;6.25;;;;;;;;;;5017582;28;20110;-86
2021/09/18 06:37:50;;;;;;;9.25;5.68;;;;;;;;;;5017556;28;20076;-86
2021/09/18 06:40:18;;;;;;;10.90;5.90;;;;;;;;;;5018261;28;20022;-86
2021/09/18 06:42:45;;;;;;;13.10;6.13;;;;;;;;;;5000144;28;20022;-87
2021/09/18 06:45:11;;;;;;;11.93;6.25;;;;;;;;;;5017794;28;20026;-86
2021/09/18 06:47:37;;;;;;;13.98;5.85;;;;;;;;;;5018762;28;20034;-86
2021/09/18 06:50:04;;;;;;;9.77;5.95;;;;;;;;;;5018732;28;20101;-86
2021/09/18 06:52:30;;;;;;;10.82;5.78;;;;;;;;;;5020914;28;20030;-86
2021/09/18 06:54:55;;;;;;;8.73;4.95;;;;;;;;;;5004961;28;20021;-87
2021/09/18 06:57:21;;;;;;;8.45;4.55;;;;;;;;;;5019850;28;20568;-86
2021/09/18 06:59:46;;;;;;;9.75;4.93;;;;;;;;;;5019933;28;20034;-86
2021/09/18 07:02:11;;;;;;;9.40;4.90;;;;;;;;;;5017320;28;20053;-87
2021/09/18 07:04:37;;;;;;;6.88;4.60;;;;;;;;;;5017513;28;20033;-86
2021/09/18 07:07:03;;;;;;;8.88;4.20;;;;;;;;;;5017008;28;20025;-87
2021/09/18 07:09:28;;;;;;;9.65;4.88;;;;;;;;;;5017148;28;20516;-86
2021/09/18 07:11:54;;;;;;;10.18;5.07;;;;;;;;;;5017297;28;20017;-86
2021/09/18 07:14:19;;;;;;;8.23;4.80;;;;;;;;;;5017190;28;20022;-86
2021/09/18 07:16:44;;;;;;;8.52;5.15;;;;;;;;;;5017729;28;20084;-85
2021/09/18 07:19:10;;;;;;;11.27;4.95;;;;;;;;;;5001647;28;20029;-86
2021/09/18 07:21:35;;;;;;;7.68;5.00;;;;;;;;;;5019347;28;20438;-85
2021/09/18 07:24:01;;;;;;;7.93;5.32;;;;;;;;;;5018509;28;20030;-85
2021/09/18 07:26:27;;;;;;;8.57;5.00;;;;;;;;;;5017625;28;20595;-85
2021/09/18 07:28:52;;;;;;;5.97;4.43;;;;;;;;;;5016916;28;20026;-85
2021/09/18 07:31:18;;;;;;;5.53;3.92;;;;;;;;;;4999957;28;20076;-85
2021/09/18 07:33:43;;;;;;;9.27;5.93;;;;;;;;;;5025359;28;20124;-85
2021/09/18 07:36:09;;;;;;;9.98;4.32;;;;;;;;;;5020067;28;20026;-85
2021/09/18 07:38:34;;;;;;;7.70;4.07;;;;;;;;;;5017454;28;20164;-85
2021/09/18 07:40:59;;;;;;;9.98;3.60;;;;;;;;;;4999894;28;20033;-85
2021/09/18 07:43:25;;;;;;;9.63;3.40;;;;;;;;;;4999743;28;20021;-85
2021/09/18 07:45:50;;;;;;;7.50;3.90;;;;;;;;;;5017333;28;20460;-85
2021/09/18 07:48:16;;;;;;;10.55;3.50;;;;;;;;;;5017537;28;20037;-85
2021/09/18 07:50:42;;;;;;;12.82;3.60;;;;;;;;;;5017373;28;20030;-85
2021/09/18 07:53:07;;;;;;;5.28;3.25;;;;;;;;;;5016497;28;20029;-85
2021/09/18 07:55:33;;;;;;;9.63;3.80;;;;;;;;;;5016403;28;20504;-85
2021/09/18 07:57:59;;;;;;;7.05;3.30;;;;;;;;;;5016004;28;20113;-85
2021/09/18 08:00:24;;;;;;;8.98;3.20;;;;;;;;;;5016524;28;20025;-85
2021/09/18 08:02:52;;;;;;;7.85;3.05;;;;;;;;;;5018432;28;20022;-85
2021/09/18 08:05:18;;;;;;;7.47;2.95;;;;;;;;;;5016792;28;20065;-85
2021/09/18 08:07:43;;;;;;;3.35;2.25;;;;;;;;;;4999280;28;20088;-85
2021/09/18 08:10:13;;;;;;;4.70;2.55;;;;;;;;;;5016546;28;20548;-85
2021/09/18 08:12:39;;;;;;;8.30;2.35;;;;;;;;;;5019932;28;20021;-85
2021/09/18 08:15:06;;;;;;;5.50;2.13;;;;;;;;;;5020163;28;20101;-85
2021/09/18 08:17:32;;;;;;;4.07;2.13;;;;;;;;;;4999900;28;20084;-85
2021/09/18 08:19:57;;;;;;;5.60;2.90;;;;;;;;;;5018113;28;20017;-85
2021/09/18 08:22:23;;;;;;;5.75;1.98;;;;;;;;;;5027755;28;20032;-84
2021/09/18 08:24:48;;;;;;;4.57;1.88;;;;;;;;;;5034561;28;20030;-85
2021/09/18 08:27:13;;;;;;;7.13;2.60;;;;;;;;;;5022122;28;20025;-85
2021/09/18 08:29:39;;;;;;;8.32;2.70;;;;;;;;;;5019594;28;20595;-85
2021/09/18 08:32:04;;;;;;;4.35;2.00;;;;;;;;;;5017654;28;20477;-86
2021/09/18 08:34:30;;;;;;;9.75;2.35;;;;;;;;;;5016260;28;20079;-85
2021/09/18 08:36:55;;;;;;;3.63;2.08;;;;;;;;;;5017121;28;20029;-85
2021/09/18 08:39:21;;;;;;;8.07;2.60;;;;;;;;;;5016344;28;20034;-85
2021/09/18 08:41:47;;;;;;;11.80;3.22;;;;;;;;;;5017003;28;20168;-86
2021/09/18 08:44:14;;;;;;;9.43;2.53;;;;;;;;;;5015914;28;20034;-86
2021/09/18 08:46:41;;;;;;;4.60;2.30;;;;;;;;;;5018168;28;20113;-85
2021/09/18 08:49:08;;;;;;;6.50;2.83;;;;;;;;;;5019329;28;20477;-86
2021/09/18 08:51:35;;;;;;;6.65;2.28;;;;;;;;;;5002600;28;20098;-86
2021/09/18 08:54:00;;;;;;;4.43;2.20;;;;;;;;;;5019303;28;20033;-86
2021/09/18 08:56:26;;;;;;;4.22;1.50;;;;;;;;;;5019201;28;20022;-86
2021/09/18 08:58:51;;;;;;;3.30;1.65;;;;;;;;;;5020009;28;20045;-86
2021/09/18 09:01:16;;;;;;;10.52;2.00;;;;;;;;;;5002115;28;20069;-86
2021/09/18 09:03:42;;;;;;;8.27;2.22;;;;;;;;;;5018065;28;20030;-86
2021/09/18 09:06:14;;;;;;;5.70;1.95;;;;;;;;;;5019383;28;20030;-86
2021/09/18 09:08:43;;;;;;;9.55;1.20;;;;;;;;;;5019127;28;20113;-86
2021/09/18 09:11:20;;;;;;;3.25;1.00;;;;;;;;;;5018696;28;20029;-86
2021/09/18 09:14:00;;;;;;;8.10;1.85;;;;;;;;;;5016289;28;20389;-87
2021/09/18 09:16:27;;;;;;;8.93;1.30;;;;;;;;;;5017410;28;20108;-86
2021/09/18 09:18:53;;;;;;;2.03;1.08;;;;;;;;;;5016795;28;20022;-86
2021/09/18 09:21:25;;;;;;;5.45;1.52;;;;;;;;;;5016219;28;20018;-85
2021/09/18 09:24:10;;;;;;;5.90;1.95;;;;;;;;;;5016789;28;20452;-86
2021/09/18 09:26:37;;;;;;;2.08;0.98;;;;;;;;;;5016784;28;20405;-86
2021/09/18 09:29:03;;;;;;;4.93;1.17;;;;;;;;;;5016555;28;20030;-86
2021/09/18 09:31:29;;;;;;;5.97;1.27;;;;;;;;;;5018760;28;20551;-86
2021/09/18 09:34:16;;;;;;;1.65;1.10;;;;;;;;;;4999843;28;20037;-84
2021/09/18 09:36:47;;;;;;;4.70;1.50;;;;;;;;;;5016565;28;20030;-85
2021/09/18 09:39:15;;;;;;;6.15;1.67;;;;;;;;;;4998747;28;20025;-84
2021/09/18 09:41:53;;;;;;;4.15;1.10;;;;;;;;;;4998706;28;20500;-85
2021/09/18 09:44:20;;;;;;;7.25;1.30;;;;;;;;;;5020275;28;20026;-85
2021/09/18 09:47:07;;;;;;;2.28;1.20;;;;;;;;;;5022126;28;20105;-85
2021/09/18 09:49:51;;;;;;;3.42;1.10;;;;;;;;;;5018794;28;20075;-84
2021/09/18 09:52:25;;;;;;;3.88;1.05;;;;;;;;;;5023070;28;20088;-85
2021/09/18 09:54:54;;;;;;;4.32;1.20;;;;;;;;;;5021099;28;20087;-84
2021/09/18 09:57:20;;;;;;;2.13;1.05;;;;;;;;;;5020861;28;20025;-85
2021/09/18 09:59:45;;;;;;;2.45;1.05;;;;;;;;;;5023025;28;20026;-83
2021/09/18 10:02:13;;;;;;;4.20;1.70;;;;;;;;;;5004503;28;20477;-84
2021/09/18 10:04:39;;;;;;;2.80;1.33;;;;;;;;;;5023841;28;20025;-85
2021/09/18 10:07:05;;;;;;;4.55;1.23;;;;;;;;;;5004265;28;20024;-85
2021/09/18 10:09:31;;;;;;;4.38;1.70;;;;;;;;;;5002003;28;20052;-85
2021/09/18 10:11:57;;;;;;;7.18;1.40;;;;;;;;;;5019716;28;20030;-86
2021/09/18 10:14:25;;;;;;;3.65;1.65;;;;;;;;;;5001315;28;20075;-85
2021/09/18 10:16:53;;;;;;;5.32;1.40;;;;;;;;;;5001638;28;20508;-85
2021/09/18 10:19:30;;;;;;;4.03;1.73;;;;;;;;;;5001590;28;20033;-84
2021/09/18 10:24:41;;;;;;;6.63;2.17;;;;;;;;;;5021850;28;20033;-85
2021/09/18 10:27:19;;;;;;;5.07;1.98;;;;;;;;;;5006091;28;20026;-84
2021/09/18 10:29:46;;;;;;;4.70;1.77;;;;;;;;;;5004263;28;20277;-84
2021/09/18 10:32:11;;;;;;;5.75;1.38;;;;;;;;;;5008245;28;20025;-84
2021/09/18 10:34:37;;;;;;;7.32;2.53;;;;;;;;;;5026470;28;20485;-84
2021/09/18 10:37:02;;;;;;;7.35;2.40;;;;;;;;;;5004579;28;20025;-84
2021/09/18 10:39:28;;;;;;;4.00;2.10;;;;;;;;;;5001812;28;20080;-85
2021/09/18 10:41:58;;;;;;;4.97;2.25;;;;;;;;;;5016857;28;20022;-84
2021/09/18 10:44:46;;;;;;;3.20;2.15;;;;;;;;;;5000947;28;20029;-85
2021/09/18 10:47:35;;;;;;;4.55;1.88;;;;;;;;;;4993926;28;20033;-85
2021/09/18 10:50:06;;;;;;;4.88;2.35;;;;;;;;;;5000864;28;20037;-85
2021/09/18 10:52:35;;;;;;;5.53;1.85;;;;;;;;;;5000856;28;20022;-84
2021/09/18 10:55:00;;;;;;;4.55;1.75;;;;;;;;;;5010412;28;20026;-83
2021/09/18 10:57:38;;;;;;;3.50;1.70;;;;;;;;;;5002533;28;20033;-85
2021/09/18 11:00:09;;;;;;;5.18;1.80;;;;;;;;;;5017906;28;20026;-85
2021/09/18 11:02:34;;;;;;;3.10;1.77;;;;;;;;;;5016692;28;20564;-85
2021/09/18 11:05:01;;;;;;;3.03;1.65;;;;;;;;;;5000715;28;20061;-85
2021/09/18 11:07:49;;;;;;;5.47;1.80;;;;;;;;;;5018285;28;20038;-84
2021/09/18 11:10:21;;;;;;;5.10;1.80;;;;;;;;;;5000292;28;20026;-84
2021/09/18 11:13:08;;;;;;;3.25;1.60;;;;;;;;;;5000256;28;20026;-84
2021/09/18 11:15:40;;;;;;;5.88;1.60;;;;;;;;;;5017936;28;20509;-84
2021/09/18 11:18:41;;;;;;;2.83;1.23;;;;;;;;;;5001390;28;20551;-84
2021/09/18 11:21:25;;;;;;;4.57;1.50;;;;;;;;;;5000147;28;20045;-84
2021/09/18 11:23:57;;;;;;;3.10;1.50;;;;;;;;;;5017587;28;20088;-84
2021/09/18 11:26:39;;;;;;;2.95;1.67;;;;;;;;;;4999604;28;20076;-84
2021/09/18 11:29:10;;;;;;;3.25;1.40;;;;;;;;;;5017568;28;20036;-85
2021/09/18 11:31:50;;;;;;;2.15;1.23;;;;;;;;;;5017093;28;20024;-84
2021/09/18 11:34:16;;;;;;;2.75;1.10;;;;;;;;;;4999778;28;20105;-85
2021/09/18 11:36:43;;;;;;;4.30;1.60;;;;;;;;;;4999945;28;20456;-84
2021/09/18 11:39:08;;;;;;;2.08;1.20;;;;;;;;;;4999440;28;20032;-84
2021/09/18 11:41:34;;;;;;;3.13;1.60;;;;;;;;;;5016536;28;20021;-84
2021/09/18 11:44:08;;;;;;;3.40;1.02;;;;;;;;;;4999253;28;20037;-86
2021/09/18 11:46:33;;;;;;;7.53;1.30;;;;;;;;;;4999223;28;20022;-85
2021/09/18 11:49:00;;;;;;;2.17;1.00;;;;;;;;;;5000402;28;20112;-84
2021/09/18 11:51:26;;;;;;;1.85;1.10;;;;;;;;;;5000786;28;20022;-86
2021/09/18 11:54:06;;;;;;;1.65;0.80;;;;;;;;;;5017994;28;20397;-85
2021/09/18 11:56:32;;;;;;;1.45;0.80;;;;;;;;;;5026160;28;20025;-86
2021/09/18 11:59:08;;;;;;;2.83;0.80;;;;;;;;;;5019000;28;20045;-85
2021/09/18 12:01:35;;;;;;;2.08;0.70;;;;;;;;;;4999517;28;20014;-87
2021/09/18 12:04:00;;;;;;;2.30;0.80;;;;;;;;;;4999566;28;20447;-86
2021/09/18 12:06:29;;;;;;;2.25;1.13;;;;;;;;;;5000179;28;20026;-85
2021/09/18 12:08:54;;;;;;;2.55;0.90;;;;;;;;;;4999674;28;20033;-85
2021/09/18 12:11:20;;;;;;;3.20;1.20;;;;;;;;;;5000371;28;20435;-87
2021/09/18 12:13:48;;;;;;;1.92;1.25;;;;;;;;;;5000430;28;20022;-86
2021/09/18 12:16:15;;;;;;;5.20;1.23;;;;;;;;;;5016324;28;20014;-86
2021/09/18 12:18:45;;;;;;;1.73;1.13;;;;;;;;;;5018108;28;20109;-86
2021/09/18 12:21:26;;;;;;;4.45;1.02;;;;;;;;;;5019131;28;20018;-86
2021/09/18 12:24:08;;;;;;;3.65;1.10;;;;;;;;;;5017228;28;20030;-86
2021/09/18 12:26:38;;;;;;;6.45;1.80;;;;;;;;;;5016170;28;20037;-85
2021/09/18 12:29:12;;;;;;;2.03;1.05;;;;;;;;;;4999643;28;20608;-86
2021/09/18 12:31:43;;;;;;;4.72;1.00;;;;;;;;;;5035844;28;20026;-88
2021/09/18 12:34:11;;;;;;;4.38;1.00;;;;;;;;;;5036291;28;20010;-86
2021/09/18 12:36:37;;;;;;;2.13;0.98;;;;;;;;;;5019644;28;20009;-86
2021/09/18 12:39:06;;;;;;;4.47;1.30;;;;;;;;;;5019039;28;20449;-86
2021/09/18 12:41:33;;;;;;;6.53;1.42;;;;;;;;;;5016682;28;20145;-86
2021/09/18 12:44:11;;;;;;;3.35;0.80;;;;;;;;;;5016405;28;20045;-86
2021/09/18 12:46:40;;;;;;;2.83;0.80;;;;;;;;;;5017304;28;20068;-86
2021/09/18 12:49:05;;;;;;;2.30;0.88;;;;;;;;;;5016509;28;20053;-86
2021/09/18 12:51:34;;;;;;;5.30;1.30;;;;;;;;;;4999684;28;20512;-87
2021/09/18 12:54:00;;;;;;;1.33;0.80;;;;;;;;;;5016850;28;20029;-86
2021/09/18 12:56:28;;;;;;;2.70;1.00;;;;;;;;;;4999951;28;20057;-86
2021/09/18 12:58:57;;;;;;;2.50;0.70;;;;;;;;;;5012017;28;20033;-86
2021/09/18 13:01:35;;;;;;;1.77;1.00;;;;;;;;;;5019765;28;20026;-87
2021/09/18 13:04:06;;;;;;;1.95;1.20;;;;;;;;;;5002737;28;20053;-86
2021/09/18 13:06:32;;;;;;;2.78;0.90;;;;;;;;;;5001546;28;20026;-86
2021/09/18 13:09:03;;;;;;;1.30;1.00;;;;;;;;;;5019498;28;20040;-86
2021/09/18 13:11:46;;;;;;;2.45;0.75;;;;;;;;;;5019296;28;20033;-86
2021/09/18 13:14:20;;;;;;;3.40;1.20;;;;;;;;;;5004053;28;20389;-86
2021/09/18 13:16:59;;;;;;;8.45;1.35;;;;;;;;;;5020466;28;20443;-87
2021/09/18 13:19:27;;;;;;;4.32;0.63;;;;;;;;;;5003160;28;20113;-86
2021/09/18 13:21:54;;;;;;;1.85;0.70;;;;;;;;;;5020646;28;20082;-86
2021/09/18 13:24:21;;;;;;;2.33;0.80;;;;;;;;;;5019900;28;20057;-86
2021/09/18 13:26:46;;;;;;;1.17;0.70;;;;;;;;;;5023467;28;20022;-87
2021/09/18 13:29:12;;;;;;;2.47;0.93;;;;;;;;;;5003980;28;20025;-86
2021/09/18 13:31:37;;;;;;;2.42;0.80;;;;;;;;;;5005141;28;20036;-86
2021/09/18 13:34:03;;;;;;;3.42;0.70;;;;;;;;;;5005066;28;20029;-86
2021/09/18 13:36:30;;;;;;;3.30;0.80;;;;;;;;;;5006510;28;20084;-87
2021/09/18 13:38:55;;;;;;;2.15;0.80;;;;;;;;;;5039647;28;20057;-85
2021/09/18 13:41:21;;;;;;;1.20;0.70;;;;;;;;;;5035346;28;20038;-86
2021/09/18 13:43:47;;;;;;;3.03;0.80;;;;;;;;;;5023769;28;20026;-86
2021/09/18 13:46:13;;;;;;;1.65;0.60;;;;;;;;;;5022209;28;20416;-86
2021/09/18 13:48:38;;;;;;;1.65;0.60;;;;;;;;;;5023065;28;20105;-86
2021/09/18 13:51:04;;;;;;;0.93;0.63;;;;;;;;;;5021860;28;20030;-87
2021/09/18 13:53:30;;;;;;;1.42;0.70;;;;;;;;;;5021365;28;20037;-87
2021/09/18 13:55:56;;;;;;;3.75;0.88;;;;;;;;;;5022685;28;20032;-87
2021/09/18 13:58:22;;;;;;;1.13;0.73;;;;;;;;;;5003669;28;20034;-87
2021/09/18 14:00:48;;;;;;;0.90;0.70;;;;;;;;;;5021419;28;20116;-87
2021/09/18 14:03:14;;;;;;;2.20;0.85;;;;;;;;;;5022380;28;20111;-87
2021/09/18 14:05:40;;;;;;;3.05;0.90;;;;;;;;;;5023034;28;20030;-86
2021/09/18 14:08:06;;;;;;;1.17;0.80;;;;;;;;;;5032022;28;20013;-86
2021/09/18 14:10:31;;;;;;;4.25;1.75;;;;;;;;;;5007554;28;20412;-86
2021/09/18 14:12:57;;;;;;;1.92;1.25;;;;;;;;;;5021017;28;20080;-86
2021/09/18 14:15:22;;;;;;;1.75;1.17;;;;;;;;;;5005398;28;20061;-86
2021/09/18 14:17:48;;;;;;;3.10;1.30;;;;;;;;;;5003382;28;20025;-87
2021/09/18 14:20:15;;;;;;;2.08;1.00;;;;;;;;;;5021245;28;20026;-86
2021/09/18 14:22:40;;;;;;;4.00;1.70;;;;;;;;;;5020735;28;20029;-86
2021/09/18 14:25:06;;;;;;;6.50;1.00;;;;;;;;;;5005382;28;20121;-86
2021/09/18 14:27:32;;;;;;;5.60;1.30;;;;;;;;;;5018720;28;20392;-86
2021/09/18 14:29:57;;;;;;;4.28;1.20;;;;;;;;;;5019010;28;20436;-86
2021/09/18 14:32:23;;;;;;;6.45;1.20;;;;;;;;;;5018824;28;20022;-86
2021/09/18 14:34:48;;;;;;;1.10;0.80;;;;;;;;;;5002010;28;20036;-86